Estación Meteorológica Peña el Pijo (Robertgarden) [ 08/17/18 05:39:16 CEST ]

Fecha Hora Presion(HPa) Temp (°C) Humedad % Rocio (°C) Viento ( m/s) Direccion Lluvia 1Hora(mm) Lluvia 24H(mm) LLuvia Total(mm)
2018-Apr-11 01:02:02 988.300 2.9 84 0.4     0.51 5.69 195.80
2018-Apr-11 02:01:53 988.600 2.2 84 -0.3 6.5 NW   5.69 195.80
2018-Apr-11 03:01:42 987.800 1.5 83 -1.1       5.69 195.80
2018-Apr-11 04:04:04 987.300 1.4 84 -1.1 1.3 NW   5.69 195.80
2018-Apr-11 05:01:39 987.100 1.3 85 -1.0       5.69 195.80
2018-Apr-11 06:02:24 987.100 1.5 85 -0.6     0.51 6.21 196.32
2018-Apr-11 07:01:41 987.200 0.8 86 -1.3       6.21 196.32
2018-Apr-11 08:01:53 987.200 0.8 87 -1.2       6.21 196.32
2018-Apr-11 09:01:42 988.000 1.8 87 -0.2 1.1 WNW   6.21 196.32
2018-Apr-11 10:01:37 988.400 2.3 87 0.3 1.1 NW 0.51 6.73 196.84
2018-Apr-11 11:01:46 989.600 4.4 81 1.4     0.51 7.25 197.35
2018-Apr-11 12:01:38 990.000 3.9 81 1.0 1.9 NNW   7.25 197.35
2018-Apr-11 13:01:42 990.000 6.2 79 2.8       7.25 197.35
2018-Apr-11 14:01:58 990.300 5.9 77 2.2       7.25 197.35
2018-Apr-11 15:01:56 989.800 7.4 73 2.9       7.25 197.35
2018-Apr-11 16:01:54 989.700 8.3 61 1.2 2.5 NNW   7.25 197.35
2018-Apr-11 17:01:43 990.200 6.3 66 0.4 1.7 NNW   7.25 197.35
2018-Apr-11 18:01:49 990.600 8.9 57 0.8 2.9 NNW   6.21 197.35
2018-Apr-11 19:01:41 990.800 7.6 56 -0.7 3.1 WNW   5.69 197.35
2018-Apr-11 20:01:52 992.300 6.4 59 -1.1       5.69 197.35
2018-Apr-11 21:01:46 993.200 6.2 59 -1.2 2.0 WNW   3.62 197.35
2018-Apr-11 22:01:47 993.700 6.0 61 -1.0       2.07 197.35
2018-Apr-11 23:01:28 994.200 5.9 62 -0.9       2.07 197.35

Temperatura Máxima:    Temperatura Mínima:
Presión Máxima:994.200 Hpa    Presión Mínima:987.100 Hpa


Volver